createdAt,value
2018-12-18T00:01:45.880Z,19.77
2018-12-18T00:04:14.074Z,20.70
2018-12-18T00:06:42.225Z,21.17
2018-12-18T00:09:10.477Z,20.90
2018-12-18T00:11:38.732Z,20.15
2018-12-18T00:14:06.965Z,20.27
2018-12-18T00:16:35.718Z,21.33
2018-12-18T00:19:04.252Z,21.42
2018-12-18T00:21:32.544Z,22.40
2018-12-18T00:24:00.728Z,24.13
2018-12-18T00:26:28.986Z,24.17
2018-12-18T00:28:57.195Z,23.83
2018-12-18T00:31:25.375Z,24.87
2018-12-18T00:33:53.584Z,22.93
2018-12-18T00:36:21.861Z,23.57
2018-12-18T00:38:50.138Z,25.20
2018-12-18T00:41:18.348Z,26.93
2018-12-18T00:43:46.564Z,24.90
2018-12-18T00:46:14.755Z,25.57
2018-12-18T00:48:43.106Z,24.80
2018-12-18T00:51:11.354Z,26.50
2018-12-18T00:53:39.600Z,27.27
2018-12-18T00:56:07.821Z,29.80
2018-12-18T00:58:36.142Z,28.67
2018-12-18T01:01:06.019Z,28.37
2018-12-18T01:03:34.477Z,30.12
2018-12-18T01:06:02.737Z,31.75
2018-12-18T01:08:31.092Z,30.15
2018-12-18T01:10:59.335Z,32.00
2018-12-18T01:13:27.565Z,30.33
2018-12-18T01:15:55.771Z,29.27
2018-12-18T01:18:24.047Z,29.83
2018-12-18T01:20:52.383Z,30.70
2018-12-18T01:23:20.767Z,32.35
2018-12-18T01:25:48.981Z,34.08
2018-12-18T01:28:17.308Z,33.27
2018-12-18T01:30:45.516Z,33.95
2018-12-18T01:33:14.026Z,33.48
2018-12-18T01:35:42.226Z,34.43
2018-12-18T01:38:10.504Z,34.58
2018-12-18T01:40:38.811Z,32.88
2018-12-18T01:43:06.990Z,33.90
2018-12-18T01:45:35.760Z,34.77
2018-12-18T01:48:04.680Z,34.17
2018-12-18T01:50:32.968Z,32.70
2018-12-18T01:53:01.186Z,34.27
2018-12-18T01:55:29.412Z,34.57
2018-12-18T01:57:57.613Z,35.30
2018-12-18T02:00:25.930Z,34.67
2018-12-18T02:02:54.094Z,36.50
2018-12-18T02:05:22.334Z,36.27
2018-12-18T02:07:50.539Z,35.87
2018-12-18T02:10:18.832Z,35.53
2018-12-18T02:12:47.091Z,37.10
2018-12-18T02:18:08.839Z,35.47
2018-12-18T02:20:37.130Z,39.23
2018-12-18T02:23:05.373Z,37.63
2018-12-18T02:25:33.561Z,37.53
2018-12-18T02:28:01.751Z,35.93
2018-12-18T02:30:29.927Z,38.57
2018-12-18T02:32:58.165Z,37.73
2018-12-18T02:35:26.488Z,37.00
2018-12-18T02:37:54.767Z,38.87
2018-12-18T02:40:22.962Z,37.03
2018-12-18T02:42:51.126Z,38.03
2018-12-18T02:45:19.412Z,37.93
2018-12-18T02:47:47.626Z,39.97
2018-12-18T02:50:15.944Z,40.30
2018-12-18T02:52:44.224Z,37.63
2018-12-18T02:55:12.445Z,37.37
2018-12-18T02:57:40.873Z,38.40
2018-12-18T03:00:09.362Z,37.47
2018-12-18T03:02:37.539Z,38.53
2018-12-18T03:05:06.009Z,36.70
2018-12-18T03:07:34.212Z,38.23
2018-12-18T03:10:02.565Z,38.10
2018-12-18T03:12:30.734Z,38.40
2018-12-18T03:14:58.918Z,38.83
2018-12-18T03:17:27.182Z,38.00
2018-12-18T03:19:57.247Z,37.93
2018-12-18T03:22:25.716Z,41.60
2018-12-18T03:24:53.987Z,39.20
2018-12-18T03:27:22.215Z,37.33
2018-12-18T03:29:50.395Z,36.33
2018-12-18T03:32:19.717Z,39.13
2018-12-18T03:34:47.977Z,37.93
2018-12-18T03:37:16.284Z,38.73
2018-12-18T03:39:44.558Z,38.87
2018-12-18T03:42:12.729Z,39.20
2018-12-18T03:44:41.065Z,39.20
2018-12-18T03:47:09.334Z,39.87
2018-12-18T03:49:37.502Z,36.40
2018-12-18T03:52:05.856Z,35.87
2018-12-18T03:54:34.035Z,37.90
2018-12-18T03:57:02.298Z,37.67
2018-12-18T03:59:30.460Z,37.97
2018-12-18T04:01:58.668Z,36.83
2018-12-18T04:04:26.901Z,37.67
2018-12-18T04:06:55.282Z,35.93
2018-12-18T04:09:24.402Z,36.10
2018-12-18T04:11:58.415Z,35.87
2018-12-18T04:14:26.571Z,38.70
2018-12-18T04:16:54.828Z,37.43
2018-12-18T04:19:23.052Z,38.03
2018-12-18T04:21:51.306Z,38.23
2018-12-18T04:24:19.487Z,39.50
2018-12-18T04:26:47.760Z,41.90
2018-12-18T04:29:16.038Z,47.47
2018-12-18T04:31:44.233Z,51.53
2018-12-18T04:34:14.455Z,40.80
2018-12-18T04:36:42.917Z,40.80
2018-12-18T04:39:11.103Z,41.63
2018-12-18T04:41:39.292Z,45.80
2018-12-18T04:44:07.489Z,39.17
2018-12-18T04:46:35.800Z,45.23
2018-12-18T04:49:04.120Z,39.73
2018-12-18T04:51:32.342Z,38.67
2018-12-18T04:54:00.507Z,38.70
2018-12-18T04:56:29.014Z,37.47
2018-12-18T04:58:57.372Z,43.13
2018-12-18T05:01:25.623Z,37.37
2018-12-18T05:03:53.862Z,35.47
2018-12-18T05:06:22.112Z,36.87
2018-12-18T05:08:50.399Z,35.60
2018-12-18T05:11:18.621Z,35.37
2018-12-18T05:13:46.898Z,35.00
2018-12-18T05:16:15.121Z,36.17
2018-12-18T05:18:43.506Z,34.57
2018-12-18T05:21:11.785Z,35.87
2018-12-18T05:23:40.041Z,37.33
2018-12-18T05:26:08.242Z,35.23
2018-12-18T05:28:36.478Z,34.40
2018-12-18T05:31:04.717Z,34.30
2018-12-18T05:33:32.930Z,33.80
2018-12-18T05:36:01.237Z,33.30
2018-12-18T05:38:29.428Z,35.40
2018-12-18T05:40:57.659Z,36.70
2018-12-18T05:43:26.705Z,38.40
2018-12-18T05:45:55.203Z,36.53
2018-12-18T05:48:23.415Z,36.53
2018-12-18T05:50:51.608Z,36.77
2018-12-18T05:53:19.870Z,36.30
2018-12-18T05:55:48.174Z,35.93
2018-12-18T05:58:16.335Z,37.50
2018-12-18T06:00:44.588Z,34.27
2018-12-18T06:03:13.009Z,37.00
2018-12-18T06:05:41.192Z,37.50
2018-12-18T06:08:09.374Z,35.27
2018-12-18T06:10:38.970Z,34.40
2018-12-18T06:13:07.543Z,39.07
2018-12-18T06:15:35.719Z,36.50
2018-12-18T06:18:04.080Z,35.37
2018-12-18T06:20:32.276Z,34.07
2018-12-18T06:23:00.516Z,34.53
2018-12-18T06:25:28.709Z,32.60
2018-12-18T06:27:56.929Z,35.97
2018-12-18T06:30:25.111Z,34.93
2018-12-18T06:32:53.360Z,34.83
2018-12-18T06:35:22.954Z,35.27
2018-12-18T06:37:51.147Z,35.43
2018-12-18T06:40:19.521Z,33.23
2018-12-18T06:42:47.686Z,35.10
2018-12-18T06:45:16.003Z,35.20
2018-12-18T06:47:44.300Z,34.73
2018-12-18T06:50:12.515Z,34.30
2018-12-18T06:52:40.886Z,34.53
2018-12-18T06:55:09.275Z,33.93
2018-12-18T06:57:37.549Z,33.13
2018-12-18T07:00:09.407Z,34.03
2018-12-18T07:02:38.406Z,35.67
2018-12-18T07:05:06.763Z,37.90
2018-12-18T07:07:35.002Z,35.33
2018-12-18T07:10:04.209Z,37.33
2018-12-18T07:12:32.446Z,43.80
2018-12-18T07:15:00.671Z,35.93
2018-12-18T07:17:30.305Z,35.13
2018-12-18T07:19:59.218Z,34.53
2018-12-18T07:22:27.797Z,34.07
2018-12-18T07:24:56.037Z,34.23
2018-12-18T07:27:24.278Z,33.43
2018-12-18T07:29:52.487Z,34.03
2018-12-18T07:32:20.701Z,32.87
2018-12-18T07:34:48.906Z,31.97
2018-12-18T07:37:17.112Z,31.17
2018-12-18T07:39:45.426Z,31.97
2018-12-18T07:42:13.956Z,31.60
2018-12-18T07:44:42.131Z,29.03
2018-12-18T07:47:10.355Z,30.13
2018-12-18T07:49:38.635Z,29.03
2018-12-18T07:52:07.011Z,29.37
2018-12-18T07:54:35.183Z,28.33
2018-12-18T07:57:03.566Z,27.23
2018-12-18T07:59:31.797Z,28.53
2018-12-18T08:01:59.992Z,27.90
2018-12-18T08:04:28.401Z,28.03
2018-12-18T08:06:56.686Z,31.60
2018-12-18T08:09:24.968Z,32.37
2018-12-18T08:11:53.224Z,30.83
2018-12-18T08:14:21.496Z,32.13
2018-12-18T08:16:49.784Z,33.00
2018-12-18T08:19:17.988Z,31.50
2018-12-18T08:21:46.163Z,31.40
2018-12-18T08:24:14.414Z,35.63
2018-12-18T08:26:42.786Z,34.50
2018-12-18T08:29:11.013Z,36.17
2018-12-18T08:31:39.327Z,32.80
2018-12-18T08:34:07.519Z,31.63
2018-12-18T08:36:35.798Z,31.97
2018-12-18T08:39:06.852Z,33.37
2018-12-18T08:41:35.112Z,32.67
2018-12-18T08:44:03.695Z,28.33
2018-12-18T08:46:31.872Z,28.33
2018-12-18T08:49:00.276Z,26.20
2018-12-18T08:51:28.709Z,26.20
2018-12-18T08:53:56.942Z,26.10
2018-12-18T08:56:27.065Z,25.40
2018-12-18T08:58:55.561Z,25.83
2018-12-18T09:01:23.767Z,25.97
2018-12-18T09:03:51.920Z,24.60
2018-12-18T09:06:20.112Z,24.33
2018-12-18T09:08:48.300Z,23.47
2018-12-18T09:11:16.531Z,25.27
2018-12-18T09:13:44.857Z,22.70
2018-12-18T09:19:18.981Z,22.13
2018-12-18T09:21:47.197Z,20.70
2018-12-18T09:24:15.410Z,23.10
2018-12-18T09:26:43.620Z,22.50
2018-12-18T09:29:11.883Z,22.20
2018-12-18T09:31:40.078Z,23.57
2018-12-18T09:34:08.348Z,22.67
2018-12-18T09:36:36.534Z,24.13
2018-12-18T09:39:11.955Z,24.30
2018-12-18T09:41:40.524Z,25.03
2018-12-18T09:44:10.761Z,25.83
2018-12-18T09:46:38.967Z,24.13
2018-12-18T09:49:07.240Z,24.80
2018-12-18T09:51:35.510Z,23.77
2018-12-18T09:54:04.082Z,22.90
2018-12-18T09:56:34.284Z,21.33
2018-12-18T09:59:02.506Z,19.60
2018-12-18T10:01:30.735Z,20.53
2018-12-18T10:03:58.959Z,20.63
2018-12-18T10:06:27.223Z,22.23
2018-12-18T10:08:55.442Z,22.00
2018-12-18T10:11:23.674Z,20.67
2018-12-18T10:13:51.937Z,21.23
2018-12-18T10:16:20.299Z,21.37
2018-12-18T10:18:48.959Z,21.60
2018-12-18T10:21:17.484Z,20.17
2018-12-18T10:23:45.716Z,19.57
2018-12-18T10:26:14.143Z,18.40
2018-12-18T10:28:42.523Z,18.80
2018-12-18T10:31:10.917Z,19.20
2018-12-18T10:33:39.134Z,18.47
2018-12-18T10:36:07.360Z,18.67
2018-12-18T10:38:35.629Z,18.57
2018-12-18T10:41:03.905Z,16.90
2018-12-18T10:43:32.286Z,18.97
2018-12-18T10:46:00.602Z,18.83
2018-12-18T10:48:28.965Z,17.73
2018-12-18T10:50:57.316Z,18.63
2018-12-18T10:53:25.803Z,19.33
2018-12-18T10:55:54.085Z,17.93
2018-12-18T10:58:24.200Z,18.70
2018-12-18T11:00:58.356Z,17.93
2018-12-18T11:03:26.728Z,18.97
2018-12-18T11:05:55.692Z,19.30
2018-12-18T11:08:24.198Z,19.33
2018-12-18T11:10:52.451Z,22.43
2018-12-18T11:13:20.756Z,22.47
2018-12-18T11:15:48.972Z,21.80
2018-12-18T11:18:17.200Z,22.13
2018-12-18T11:20:45.404Z,22.13
2018-12-18T11:23:13.714Z,22.60
2018-12-18T11:25:42.002Z,23.60
2018-12-18T11:28:10.280Z,23.33
2018-12-18T11:30:38.518Z,22.63
2018-12-18T11:33:06.884Z,21.30
2018-12-18T11:35:35.114Z,21.80
2018-12-18T11:38:03.497Z,20.63
2018-12-18T11:40:31.739Z,22.07
2018-12-18T11:43:00.305Z,21.60
2018-12-18T11:45:28.663Z,20.77
2018-12-18T11:47:56.990Z,22.60
2018-12-18T11:50:25.299Z,22.50
2018-12-18T11:52:53.652Z,22.90
2018-12-18T11:55:21.883Z,21.13
2018-12-18T11:57:50.151Z,20.70
2018-12-18T12:00:19.251Z,22.63
2018-12-18T12:02:47.799Z,22.97
2018-12-18T12:05:15.986Z,23.07
2018-12-18T12:07:44.365Z,22.13
2018-12-18T12:10:12.620Z,21.77
2018-12-18T12:12:43.054Z,22.03
2018-12-18T12:15:11.548Z,23.23
2018-12-18T12:17:40.028Z,22.10
2018-12-18T12:20:08.501Z,22.03
2018-12-18T12:22:38.772Z,21.70
2018-12-18T12:25:08.396Z,21.70
2018-12-18T12:30:35.127Z,19.63
2018-12-18T12:33:03.520Z,21.07
2018-12-18T12:35:31.766Z,21.93
2018-12-18T12:38:00.036Z,20.73
2018-12-18T12:40:29.671Z,20.13
2018-12-18T12:42:58.236Z,20.80
2018-12-18T12:45:26.395Z,20.73
2018-12-18T12:47:56.824Z,21.57
2018-12-18T12:50:25.413Z,20.90
2018-12-18T12:52:53.692Z,20.97
2018-12-18T12:55:22.067Z,21.73
2018-12-18T12:57:50.337Z,23.00
2018-12-18T13:00:18.565Z,21.70
2018-12-18T13:02:46.888Z,24.47
2018-12-18T13:05:15.274Z,23.23
2018-12-18T13:07:44.203Z,23.60
2018-12-18T13:10:12.549Z,23.83
2018-12-18T13:12:40.744Z,24.97
2018-12-18T13:15:09.028Z,24.77
2018-12-18T13:17:37.276Z,25.53
2018-12-18T13:20:06.369Z,26.60
2018-12-18T13:22:34.584Z,26.83
2018-12-18T13:25:03.252Z,27.23
2018-12-18T13:27:31.467Z,29.67
2018-12-18T13:30:00.134Z,26.83
2018-12-18T13:32:28.551Z,26.30
2018-12-18T13:34:56.769Z,26.70
2018-12-18T13:37:25.125Z,28.60
2018-12-18T13:39:53.523Z,28.83
2018-12-18T13:42:21.849Z,30.50
2018-12-18T13:44:50.111Z,31.33
2018-12-18T13:47:18.447Z,31.80
2018-12-18T13:49:46.643Z,28.43
2018-12-18T13:52:15.217Z,30.73
2018-12-18T13:54:43.584Z,30.37
2018-12-18T13:57:11.795Z,29.47
2018-12-18T13:59:39.992Z,30.50
2018-12-18T14:02:08.218Z,31.10
2018-12-18T14:04:36.451Z,30.70
2018-12-18T14:07:04.852Z,32.20
2018-12-18T14:09:33.137Z,30.97
2018-12-18T14:12:01.288Z,32.33
2018-12-18T14:14:29.810Z,34.77
2018-12-18T14:16:57.959Z,33.10
2018-12-18T14:19:26.251Z,33.53
2018-12-18T14:21:54.628Z,34.50
2018-12-18T14:24:22.911Z,33.40
2018-12-18T14:26:51.093Z,35.17
2018-12-18T14:29:19.319Z,34.87
2018-12-18T14:31:47.584Z,34.57
2018-12-18T14:34:15.779Z,33.00
2018-12-18T14:36:45.409Z,33.80
2018-12-18T14:39:13.755Z,33.37
2018-12-18T14:41:42.039Z,33.63
2018-12-18T14:44:10.365Z,33.93
2018-12-18T14:46:38.827Z,34.63
2018-12-18T14:49:06.995Z,32.17
2018-12-18T14:51:35.181Z,35.10
2018-12-18T14:54:03.451Z,36.67
2018-12-18T14:56:31.682Z,34.30
2018-12-18T14:58:59.919Z,34.70
2018-12-18T15:01:29.900Z,36.40
2018-12-18T15:03:58.322Z,33.43
2018-12-18T15:06:26.538Z,33.23
2018-12-18T15:08:54.845Z,34.07
2018-12-18T15:11:23.129Z,34.63
2018-12-18T15:13:51.541Z,35.33
2018-12-18T15:16:19.914Z,35.43
2018-12-18T15:18:48.209Z,34.93
2018-12-18T15:21:16.544Z,35.70
2018-12-18T15:23:44.789Z,40.67
2018-12-18T15:26:13.223Z,37.23
2018-12-18T15:28:41.459Z,62.90
2018-12-18T15:31:09.973Z,48.77
2018-12-18T15:33:38.215Z,39.53
2018-12-18T15:36:06.794Z,36.13
2018-12-18T15:38:34.953Z,34.53
2018-12-18T15:41:03.352Z,35.63
2018-12-18T15:43:31.557Z,35.23
2018-12-18T15:45:59.954Z,37.03
2018-12-18T15:48:28.410Z,37.47
2018-12-18T15:50:56.724Z,36.67
2018-12-18T15:53:24.962Z,39.23
2018-12-18T15:55:53.184Z,40.47
2018-12-18T15:58:21.505Z,42.17
2018-12-18T16:00:49.914Z,37.33
2018-12-18T16:03:18.099Z,36.00
2018-12-18T16:05:46.458Z,33.80
2018-12-18T16:08:14.831Z,33.27
2018-12-18T16:10:43.216Z,33.73
2018-12-18T16:13:11.481Z,34.20
2018-12-18T16:15:39.873Z,34.83
2018-12-18T16:18:08.261Z,33.17
2018-12-18T16:20:36.491Z,33.20
2018-12-18T16:23:04.908Z,30.63
2018-12-18T16:25:33.101Z,33.37
2018-12-18T16:28:01.366Z,32.10
2018-12-18T16:30:29.836Z,31.03
2018-12-18T16:32:58.137Z,33.03
2018-12-18T16:35:26.332Z,29.60
2018-12-18T16:37:54.781Z,29.27
2018-12-18T16:40:22.969Z,29.87
2018-12-18T16:42:51.222Z,29.60
2018-12-18T16:45:19.426Z,30.40
2018-12-18T16:47:47.687Z,28.20
2018-12-18T16:50:15.898Z,26.57
2018-12-18T16:52:44.220Z,28.57
2018-12-18T16:55:12.477Z,26.50
2018-12-18T16:57:40.660Z,27.07
2018-12-18T17:00:09.453Z,26.47
2018-12-18T17:02:37.628Z,25.93
2018-12-18T17:05:06.691Z,27.37
2018-12-18T17:07:34.914Z,26.57
2018-12-18T17:10:03.702Z,26.33
2018-12-18T17:12:32.002Z,25.47
2018-12-18T17:15:00.178Z,25.17
2018-12-18T17:17:28.417Z,23.93
2018-12-18T17:19:56.707Z,23.50
2018-12-18T17:22:25.088Z,23.47
2018-12-18T17:24:53.469Z,23.57
2018-12-18T17:27:21.651Z,24.70
2018-12-18T17:29:49.829Z,22.57
2018-12-18T17:32:18.006Z,23.63
2018-12-18T17:34:46.179Z,22.90
2018-12-18T17:37:14.377Z,25.40
2018-12-18T17:39:43.028Z,23.23
2018-12-18T17:42:11.460Z,23.43
2018-12-18T17:44:41.098Z,22.30
2018-12-18T17:47:09.503Z,23.37
2018-12-18T17:49:37.837Z,21.77
2018-12-18T17:52:06.034Z,21.67
2018-12-18T17:54:34.255Z,20.80
2018-12-18T17:57:02.494Z,20.17
2018-12-18T17:59:30.810Z,20.07
2018-12-18T18:01:59.475Z,27.40
2018-12-18T18:04:27.671Z,23.40
2018-12-18T18:06:55.885Z,25.67
2018-12-18T18:09:24.071Z,29.00
2018-12-18T18:11:52.270Z,34.53
2018-12-18T18:14:20.547Z,30.03
2018-12-18T18:16:48.748Z,23.37
2018-12-18T18:19:16.979Z,26.10
2018-12-18T18:21:45.164Z,30.33
2018-12-18T18:24:13.419Z,26.63
2018-12-18T18:26:41.676Z,23.63
2018-12-18T18:29:09.997Z,23.80
2018-12-18T18:31:38.264Z,27.10
2018-12-18T18:34:06.513Z,25.93
2018-12-18T18:36:34.719Z,24.40
2018-12-18T18:39:03.757Z,23.37
2018-12-18T18:41:33.022Z,24.23
2018-12-18T18:44:01.322Z,22.63
2018-12-18T18:46:29.562Z,22.43
2018-12-18T18:48:57.801Z,23.03
2018-12-18T18:51:26.228Z,22.73
2018-12-18T18:54:00.575Z,22.43
2018-12-18T18:56:29.038Z,23.27
2018-12-18T18:58:57.417Z,21.53
2018-12-18T19:01:25.682Z,21.37
2018-12-18T19:03:53.968Z,20.70
2018-12-18T19:06:22.242Z,19.57
2018-12-18T19:08:50.517Z,20.27
2018-12-18T19:11:18.977Z,20.53
2018-12-18T19:13:47.272Z,21.23
2018-12-18T19:16:15.556Z,21.47
2018-12-18T19:18:43.929Z,27.17
2018-12-18T19:21:12.139Z,33.43
2018-12-18T19:23:40.350Z,22.83
2018-12-18T19:26:08.660Z,24.07
2018-12-18T19:28:37.052Z,19.03
2018-12-18T19:31:05.272Z,18.03
2018-12-18T19:33:36.792Z,19.10
2018-12-18T19:36:04.133Z,20.27
2018-12-18T19:38:32.350Z,21.47
2018-12-18T19:41:00.577Z,21.47
2018-12-18T19:43:28.778Z,21.27
2018-12-18T19:45:57.251Z,19.57
2018-12-18T19:48:25.592Z,20.43
2018-12-18T19:50:53.994Z,19.03
2018-12-18T19:53:22.179Z,19.43
2018-12-18T19:55:50.449Z,20.23
2018-12-18T19:58:18.715Z,20.53
2018-12-18T20:00:48.921Z,19.03
2018-12-18T20:03:17.425Z,19.50
2018-12-18T20:05:45.799Z,19.07
2018-12-18T20:08:14.054Z,22.33
2018-12-18T20:10:42.203Z,36.80
2018-12-18T20:13:10.399Z,40.03
2018-12-18T20:15:38.818Z,26.90
2018-12-18T20:18:06.975Z,25.37
2018-12-18T20:20:35.205Z,30.93
2018-12-18T20:23:05.361Z,23.13
2018-12-18T20:25:33.867Z,20.30
2018-12-18T20:28:02.056Z,23.30
2018-12-18T20:30:30.279Z,23.53
2018-12-18T20:32:58.510Z,20.63
2018-12-18T20:35:26.684Z,20.73
2018-12-18T20:37:54.911Z,18.30
2018-12-18T20:40:23.109Z,20.07
2018-12-18T20:42:51.481Z,18.87
2018-12-18T20:45:19.709Z,20.03
2018-12-18T20:47:47.868Z,19.70
2018-12-18T20:50:16.127Z,20.40
2018-12-18T20:52:44.393Z,20.23
2018-12-18T20:55:12.583Z,19.83
2018-12-18T20:57:40.815Z,20.40
2018-12-18T21:00:09.799Z,22.07
2018-12-18T21:02:38.004Z,22.60
2018-12-18T21:05:06.360Z,22.60
2018-12-18T21:07:34.531Z,22.83
2018-12-18T21:10:03.054Z,22.33
2018-12-18T21:12:31.338Z,21.20
2018-12-18T21:15:00.774Z,21.70
2018-12-18T21:17:29.511Z,21.43
2018-12-18T21:19:57.940Z,21.20
2018-12-18T21:22:26.291Z,22.63
2018-12-18T21:24:54.533Z,23.00
2018-12-18T21:27:22.932Z,21.20
2018-12-18T21:29:51.135Z,22.23
2018-12-18T21:32:19.495Z,21.43
2018-12-18T21:34:47.661Z,23.63
2018-12-18T21:37:15.935Z,21.83
2018-12-18T21:39:44.302Z,20.77
2018-12-18T21:42:12.724Z,22.57
2018-12-18T21:44:41.087Z,22.93
2018-12-18T21:47:09.318Z,21.00
2018-12-18T21:49:37.943Z,21.13
2018-12-18T21:52:06.420Z,20.77
2018-12-18T21:54:36.423Z,21.33
2018-12-18T21:57:05.028Z,22.00
2018-12-18T21:59:33.310Z,22.17
2018-12-18T22:02:01.579Z,22.03
2018-12-18T22:04:29.844Z,21.12
2018-12-18T22:06:58.048Z,23.22
2018-12-18T22:09:26.262Z,22.50
2018-12-18T22:11:54.425Z,23.07
2018-12-18T22:14:22.602Z,21.13
2018-12-18T22:16:50.842Z,21.90
2018-12-18T22:19:19.015Z,21.03
2018-12-18T22:21:47.273Z,22.37
2018-12-18T22:24:15.450Z,20.93
2018-12-18T22:26:43.642Z,20.95
2018-12-18T22:29:11.860Z,23.75
2018-12-18T22:31:40.149Z,26.35
2018-12-18T22:34:08.387Z,29.18
2018-12-18T22:36:36.610Z,31.90
2018-12-18T22:39:06.921Z,26.97
2018-12-18T22:41:36.982Z,37.45
2018-12-18T22:44:05.481Z,32.95
2018-12-18T22:46:33.719Z,28.63
2018-12-18T22:49:02.020Z,25.37
2018-12-18T22:51:30.390Z,22.47
2018-12-18T22:53:58.721Z,21.80
2018-12-18T22:56:26.958Z,22.80
2018-12-18T22:58:55.238Z,18.90
2018-12-18T23:04:20.983Z,19.50
2018-12-18T23:06:49.392Z,18.93
2018-12-18T23:09:17.704Z,18.53
2018-12-18T23:11:46.948Z,18.70
2018-12-18T23:14:15.356Z,20.40
2018-12-18T23:16:43.591Z,19.23
2018-12-18T23:19:11.962Z,17.37
2018-12-18T23:21:40.825Z,19.27
2018-12-18T23:24:09.225Z,16.60
2018-12-18T23:26:37.502Z,16.07
2018-12-18T23:29:05.979Z,17.50
2018-12-18T23:31:34.230Z,17.07
2018-12-18T23:34:02.428Z,19.77
2018-12-18T23:36:30.687Z,18.13
2018-12-18T23:38:58.874Z,18.13
2018-12-18T23:41:27.102Z,18.20
2018-12-18T23:43:55.250Z,17.53
2018-12-18T23:46:23.454Z,17.87
2018-12-18T23:48:51.985Z,16.93
2018-12-18T23:51:20.206Z,17.13
2018-12-18T23:53:48.465Z,19.75
2018-12-18T23:56:16.687Z,16.62
2018-12-18T23:58:44.839Z,17.63
